Latest Coastal Weather Observations for Mandurah

IDW60701

Issued at 4:03 pm WST Sunday 20 August 2017 (issued every 10 minutes, with the page automatically refreshed every 10 minutes)

About coastal observations | Map of coastal stations | Coastal observations for WA | Marine services | Other Formats
Station Details ID: 009977 Name: MANDURAH Lat: -32.52 Lon: 115.71 Height: 3.0 m
Data from the previous 72 hours. | See also: Recent months at Mandurah
Date/Time
WST
Temp
°C
Wind Pressure Rain since
9am
mm
Weather Cloud Vis
km
Sea
Height
m
Swell
Dir  Spd
kts
Gust
kts
hPa Trend Height
m
Period
s
Dir
20/04:00pm 15.7 SSW 6 10 1023.1 - 0.0 - - - - - - -
20/03:30pm 16.0 S 7 12 1023.2 - 0.0 - - - - - - -
20/03:00pm 16.6 S 5 9 1023.2 - 0.0 - - - - - - -
20/02:30pm 16.4 SSE 5 7 1023.5 - 0.0 - - - - - - -
20/02:00pm 16.1 SSE 5 8 1023.6 - 0.0 - - - - - - -
20/01:30pm 16.1 SSE 6 9 1023.8 - 0.0 - - - - - - -
20/01:00pm 15.6 SSE 7 12 1024.3 - 0.0 - - - - - - -
20/12:30pm 15.0 S 8 13 1024.9 - 0.0 - - - - - - -
20/12:00pm 15.3 S 7 11 1025.5 - 0.0 - - - - - - -
20/11:30am 14.9 SSE 6 9 1025.8 - 0.0 - - - - - - -
20/11:00am 14.9 SE 6 8 1025.9 - 0.0 - - - - - - -
20/10:30am 13.7 SSE 4 8 1026.0 - 0.0 - - - - - - -
20/10:00am 13.5 SSE 4 6 1026.0 - 0.0 - - - - - - -
20/09:30am 13.4 SE 4 7 1025.9 - 0.0 - - - - - - -
20/09:00am 12.6 SE 4 7 1025.8 - 0.8 - - - - - - -
20/08:30am 12.3 SE 5 7 1025.5 - 0.8 - - - - - - -
20/08:00am 12.1 SSE 4 6 1025.3 - 0.8 - - - - - - -
20/07:30am 12.0 SSE 4 6 1024.9 - 0.8 - - - - - - -
20/07:00am 11.8 S 5 7 1024.4 - 0.8 - - - - - - -
20/06:30am 11.8 S 5 8 1024.1 - 0.8 - - - - - - -
20/06:00am 11.7 S 3 6 1023.9 - 0.8 - - - - - - -
20/05:30am 11.8 S 4 6 1023.7 - 0.8 - - - - - - -
20/05:00am 11.6 S 4 6 1023.6 - 0.8 - - - - - - -
20/04:30am 11.5 SSE 4 6 1023.3 - 0.8 - - - - - - -
20/04:00am 11.6 SSE 4 5 1023.1 - 0.8 - - - - - - -
20/03:30am 11.7 SSE 4 6 1022.8 - 0.8 - - - - - - -
20/03:00am 11.9 SSE 4 6 1022.8 - 0.8 - - - - - - -
20/02:30am 11.9 SSE 5 7 1022.7 - 0.8 - - - - - - -
20/02:00am 12.5 S 9 12 1022.3 - 0.8 - - - - - - -
20/01:30am 12.4 S 7 11 1022.1 - 0.8 - - - - - - -
20/01:00am 12.5 S 8 12 1022.2 - 0.8 - - - - - - -
20/12:30am 12.5 S 8 13 1022.1 - 0.8 - - - - - - -
20/12:00am 12.7 S 8 13 1021.9 - 0.8 - - - - - - -
 
Date/Time
WST
Temp
°C
Wind Pressure Rain since
9am
mm
Weather Cloud Vis
km
Sea
Height
m
Swell
Dir  Spd
kts
Gust
kts
hPa Trend Height
m
Period
s
Dir
19/11:30pm 12.6 S 10 17 1021.9 - 0.8 - - - - - - -
19/11:00pm 12.5 S 10 16 1021.8 - 0.8 - - - - - - -
19/10:30pm 12.7 S 9 14 1021.8 - 0.8 - - - - - - -
19/10:00pm 13.3 S 9 14 1021.6 - 0.6 - - - - - - -
19/09:30pm 13.3 S 8 13 1021.2 - 0.6 - - - - - - -
19/09:00pm 13.2 S 9 17 1020.8 - 0.6 - - - - - - -
19/08:30pm 13.2 S 11 18 1020.4 - 0.6 - - - - - - -
19/08:00pm 13.2 S 10 18 1019.8 - 0.6 - - - - - - -
19/07:30pm 13.1 SSW 8 14 1019.3 - 0.6 - - - - - - -
19/07:00pm 13.2 S 10 16 1018.8 - 0.6 - - - - - - -
19/06:30pm 14.0 SSW 7 12 1018.1 - 0.4 - - - - - - -
19/06:00pm 14.0 SSW 7 15 1017.9 - 0.4 - - - - - - -
19/05:30pm 14.2 SSW 8 15 1017.4 - 0.4 - - - - - - -
19/05:00pm 14.5 SSW 10 15 1016.9 - 0.4 - - - - - - -
19/04:30pm 14.5 SSW 10 17 1016.7 - 0.4 - - - - - - -
19/04:00pm 14.7 SW 11 17 1016.6 - 0.4 - - - - - - -
19/03:30pm 15.5 SSW 10 18 1016.5 - 0.4 - - - - - - -
19/03:00pm 15.2 SW 9 13 1016.1 - 0.4 - - - - - - -
19/02:30pm 15.8 WSW 9 12 1015.7 - 0.4 - - - - - - -
19/02:00pm 15.7 SW 9 13 1015.7 - 0.4 - - - - - - -
19/01:30pm 16.1 WSW 8 15 1015.3 - 0.4 - - - - - - -
19/01:00pm 15.1 SW 4 6 1015.5 - 0.4 - - - - - - -
19/12:30pm 16.9 NNW 4 6 1015.6 - 0.2 - - - - - - -
19/12:00pm 16.0 N 4 6 1015.7 - 0.2 Recent precip. - - - - - -
19/11:30am 15.4 N 6 8 1016.1 - 0.2 - - - - - - -
19/11:00am 15.3 NNW 5 7 1016.2 - 0.0 - - - - - - -
19/10:30am 14.5 N 6 7 1016.2 - 0.0 - - - - - - -
19/10:00am 14.0 N 5 6 1016.4 - 0.0 - - - - - - -
19/09:30am 13.4 N 7 8 1016.3 - 0.0 - - - - - - -
19/09:00am 13.0 NNE 7 8 1016.3 - 9.4 - - - - - - -
19/08:30am 12.2 NNE 9 10 1016.1 - 9.4 - - - - - - -
19/08:00am 11.5 NE 5 6 1015.9 - 9.4 - - - - - - -
19/07:30am 10.9 NE 5 7 1015.6 - 9.4 - - - - - - -
19/07:00am 10.2 ENE 3 4 1015.3 - 9.4 - - - - - - -
19/06:30am 10.4 ENE 4 7 1014.9 - 9.4 - - - - - - -
19/06:00am 10.5 ENE 4 7 1014.6 - 9.4 - - - - - - -
19/05:30am 10.6 ENE 4 7 1014.4 - 9.4 - - - - - - -
19/05:00am 10.8 E 3 5 1014.4 - 9.4 - - - - - - -
19/04:30am 11.1 E 3 5 1014.5 - 9.2 - - - - - - -
19/04:00am 10.9 E 4 6 1014.5 - 7.0 - - - - - - -
19/03:30am 11.1 SE 3 4 1014.5 - 7.0 - - - - - - -
19/03:00am 11.4 S 4 5 1014.9 - 6.4 Rain - - - - - -
19/02:30am 11.3 SE 3 4 1014.8 - 5.0 - - - - - - -
19/02:00am 11.9 ENE 2 3 1014.7 - 3.8 - - - - - - -
19/01:30am 11.8 CALM 0 2 1015.1 - 3.8 - - - - - - -
19/01:00am 11.8 E 3 5 1014.9 - 3.8 - - - - - - -
19/12:30am 12.1 CALM 0 0 1015.2 - 3.8 - - - - - - -
19/12:00am 11.9 CALM 0 0 1015.6 - 2.8 Recent precip. - - - - - -
 
Date/Time
WST
Temp
°C
Wind Pressure Rain since
9am
mm
Weather Cloud Vis
km
Sea
Height
m
Swell
Dir  Spd
kts
Gust
kts
hPa Trend Height
m
Period
s
Dir
18/11:30pm 12.0 CALM 0 0 1015.5 - 2.6 - - - - - - -
18/11:00pm 12.0 WSW 4 5 1015.8 - 2.6 - - - - - - -
18/10:30pm 12.8 CALM 0 0 1015.6 - 2.4 - - - - - - -
18/10:00pm 12.9 E 2 2 1016.1 - 2.4 - - - - - - -
18/09:30pm 12.8 E 1 3 1016.1 - 2.2 - - - - - - -
18/09:00pm 12.8 E 2 2 1015.8 - 2.0 - - - - - - -
18/08:30pm 12.7 E 1 2 1016.0 - 2.0 - - - - - - -
18/08:00pm 12.9 E 3 5 1015.9 - 2.0 - - - - - - -
18/07:30pm 13.1 ESE 4 5 1015.8 - 2.0 - - - - - - -
18/07:00pm 13.2 SE 3 5 1015.7 - 2.0 - - - - - - -
18/06:30pm 13.3 SE 5 6 1015.4 - 2.0 - - - - - - -
18/06:00pm 13.3 SE 4 6 1015.2 - 2.0 - - - - - - -
18/05:30pm 13.3 S 5 8 1015.0 - 2.0 - - - - - - -
18/05:00pm 13.8 WSW 4 6 1014.8 - 2.0 - - - - - - -
18/04:30pm 13.5 NW 4 6 1014.5 - 0.4 - - - - - - -
18/04:00pm 13.9 NNW 9 13 1014.4 - 0.4 - - - - - - -
18/03:30pm 15.6 WNW 7 11 1014.2 - 0.0 - - - - - - -
18/03:00pm 16.4 N 7 9 1014.0 - 0.0 - - - - - - -
18/02:30pm 16.5 N 8 11 1014.0 - 0.0 - - - - - - -
18/02:00pm 16.3 N 8 10 1013.9 - 0.0 - - - - - - -
18/01:30pm 16.0 N 10 13 1014.1 - 0.0 - - - - - - -
18/01:00pm 15.6 N 9 11 1014.5 - 0.0 - - - - - - -
18/12:30pm 15.3 NNE 11 13 1015.0 - 0.0 - - - - - - -
18/12:00pm 15.0 N 12 17 1015.8 - 0.0 - - - - - - -
18/11:30am 15.1 N 11 15 1016.4 - 0.0 - - - - - - -
18/11:00am 14.9 N 10 13 1016.7 - 0.0 - - - - - - -
18/10:30am 14.8 N 11 15 1016.8 - 0.0 - - - - - - -
18/10:00am 14.5 N 11 13 1017.1 - 0.0 - - - - - - -
18/09:30am 13.9 N 14 16 1017.1 - 0.0 - - - - - - -
18/09:00am 13.6 NNE 16 20 1016.9 - 6.6 - - - - - - -
18/08:30am 13.8 NNE 12 16 1017.0 - 6.6 - - - - - - -
18/08:00am 12.8 NNE 13 15 1016.8 - 6.6 - - - - - - -
18/07:30am 12.2 NNE 10 15 1016.5 - 6.6 - - - - - - -
18/07:00am 12.3 NNE 12 16 1016.0 - 6.6 - - - - - - -
18/06:30am 12.6 NNE 11 15 1015.8 - 6.6 - - - - - - -
18/06:00am 12.5 NNE 13 16 1015.9 - 6.6 - - - - - - -
18/05:30am 12.3 NNE 12 15 1016.1 - 6.6 - - - - - - -
18/05:00am 12.2 NNE 10 14 1016.0 - 6.6 - - - - - - -
18/04:30am 12.4 NNE 12 15 1016.0 - 6.6 - - - - - - -
18/04:00am 12.7 NNE 13 16 1016.2 - 6.6 - - - - - - -
18/03:30am 12.8 N 13 15 1016.4 - 6.4 - - - - - - -
18/03:00am 13.1 N 15 18 1016.3 - 6.4 Recent precip. - - - - - -
18/02:30am 13.0 NNE 14 18 1016.3 - 6.2 - - - - - - -
18/02:00am 12.3 NNE 14 18 1016.4 - 6.2 - - - - - - -
18/01:30am 12.6 NNE 11 16 1016.4 - 5.8 - - - - - - -
18/01:00am 12.3 NNE 10 13 1016.5 - 5.8 - - - - - - -
18/12:30am 12.7 NNE 12 17 1016.7 - 5.8 - - - - - - -
18/12:00am 13.2 NNE 12 16 1016.9 - 5.8 - - - - - - -
 
Date/Time
WST
Temp
°C
Wind Pressure Rain since
9am
mm
Weather Cloud Vis
km
Sea
Height
m
Swell
Dir  Spd
kts
Gust
kts
hPa Trend Height
m
Period
s
Dir
17/11:30pm 13.3 NNE 13 19 1017.0 - 5.8 - - - - - - -
17/11:00pm 13.6 NNE 11 16 1017.2 - 5.8 - - - - - - -
17/10:30pm 15.4 NW 11 14 1017.2 - 5.8 - - - - - - -
17/10:00pm 15.0 WNW 14 18 1017.3 - 5.8 - - - - - - -
17/09:30pm 15.2 NW 16 19 1017.3 - 5.8 - - - - - - -
17/09:00pm 15.3 NW 14 18 1017.4 - 5.8 Recent precip. - - - - - -
17/08:30pm 15.2 NW 14 18 1017.3 - 5.6 - - - - - - -
17/08:00pm 15.2 NNW 13 16 1017.3 - 5.6 - - - - - - -
17/07:30pm 15.2 NW 16 19 1017.3 - 5.6 - - - - - - -
17/07:00pm 14.7 NW 13 17 1017.3 - 5.6 - - - - - - -
17/06:30pm 14.1 WNW 13 16 1017.5 - 5.6 - - - - - - -
17/06:00pm 14.7 NW 10 22 1017.5 - 5.0 Recent precip. - - - - - -
17/05:30pm 14.2 NW 16 21 1017.2 - 5.0 - - - - - - -
17/05:00pm 15.2 NW 17 23 1017.1 - 4.8 - - - - - - -
17/04:30pm 14.1 NNW 11 16 1017.2 - 4.8 - - - - - - -

Other Formats:

Comma delimited format used in spreadsheet applications
http://www.bom.gov.au/fwo/IDW60701/IDW60701.94605.axf

JavaScript Object Notation format (JSON) in row-major order
http://www.bom.gov.au/fwo/IDW60701/IDW60701.94605.json